createdAt,value
2022-09-14T00:00:43.506Z,7.30
2022-09-14T00:06:11.588Z,5.80
2022-09-14T00:11:16.131Z,6.30
2022-09-14T00:16:26.516Z,6.00
2022-09-14T00:21:30.722Z,5.30
2022-09-14T00:26:34.264Z,6.10
2022-09-14T00:31:39.681Z,5.60
2022-09-14T00:36:48.429Z,6.40
2022-09-14T00:41:53.420Z,5.60
2022-09-14T00:47:00.861Z,4.50
2022-09-14T00:52:13.465Z,5.50
2022-09-14T00:57:19.008Z,5.60
2022-09-14T01:02:26.099Z,8.60
2022-09-14T01:07:30.163Z,6.60
2022-09-14T01:12:39.822Z,5.80
2022-09-14T01:23:08.686Z,5.40
2022-09-14T01:28:43.801Z,7.20
2022-09-14T01:33:58.042Z,5.70
2022-09-14T01:39:02.977Z,5.40
2022-09-14T01:44:15.548Z,5.80
2022-09-14T01:49:49.345Z,5.10
2022-09-14T01:55:20.612Z,7.00
2022-09-14T02:00:24.544Z,4.70
2022-09-14T02:05:41.374Z,5.20
2022-09-14T02:10:44.989Z,5.00
2022-09-14T02:15:48.592Z,4.70
2022-09-14T02:21:00.534Z,5.10
2022-09-14T02:26:05.069Z,5.70
2022-09-14T02:31:23.378Z,5.00
2022-09-14T02:36:49.624Z,6.10
2022-09-14T02:42:00.556Z,6.30
2022-09-14T02:52:18.558Z,4.80
2022-09-14T02:57:21.994Z,3.70
2022-09-14T03:02:25.636Z,4.40
2022-09-14T03:07:29.211Z,5.10
2022-09-14T03:12:32.630Z,5.00
2022-09-14T03:17:36.052Z,4.50
2022-09-14T03:22:50.264Z,4.50
2022-09-14T03:28:00.489Z,4.00
2022-09-14T03:33:04.826Z,4.60
2022-09-14T03:38:08.962Z,5.20
2022-09-14T03:43:18.735Z,3.90
2022-09-14T03:48:23.812Z,4.40
2022-09-14T03:53:28.226Z,5.00
2022-09-14T03:58:32.565Z,3.80
2022-09-14T04:03:36.830Z,4.00
2022-09-14T04:08:51.701Z,4.00
2022-09-14T04:14:01.047Z,3.90
2022-09-14T04:19:08.159Z,3.80
2022-09-14T04:24:16.513Z,4.00
2022-09-14T04:29:21.010Z,4.90
2022-09-14T04:34:25.769Z,4.20
2022-09-14T04:39:29.383Z,4.20
2022-09-14T04:44:32.903Z,3.90
2022-09-14T04:49:36.427Z,3.90
2022-09-14T04:54:40.050Z,3.80
2022-09-14T04:59:43.568Z,3.30
2022-09-14T05:04:46.992Z,3.60
2022-09-14T05:09:50.817Z,5.30
2022-09-14T05:14:54.231Z,4.90
2022-09-14T05:19:59.835Z,4.00
2022-09-14T05:25:03.744Z,5.20
2022-09-14T05:30:08.417Z,6.70
2022-09-14T05:35:12.000Z,6.60
2022-09-14T05:40:15.554Z,5.40
2022-09-14T05:45:19.144Z,5.90
2022-09-14T05:50:23.585Z,3.60
2022-09-14T05:55:27.723Z,4.50
2022-09-14T06:00:32.719Z,7.00
2022-09-14T06:05:36.671Z,5.80
2022-09-14T06:10:41.048Z,5.90
2022-09-14T06:15:44.570Z,10.90
2022-09-14T06:20:52.496Z,6.20
2022-09-14T06:25:57.450Z,18.00
2022-09-14T06:31:03.602Z,7.60
2022-09-14T06:36:12.472Z,5.80
2022-09-14T06:41:18.713Z,16.20
2022-09-14T06:46:25.579Z,5.40
2022-09-14T06:51:30.399Z,5.40
2022-09-14T06:56:36.475Z,7.90
2022-09-14T07:01:40.512Z,10.20
2022-09-14T07:06:49.934Z,8.40
2022-09-14T07:11:54.919Z,6.20
2022-09-14T07:16:58.439Z,6.90
2022-09-14T07:22:02.573Z,5.30
2022-09-14T07:27:06.299Z,5.00
2022-09-14T07:32:09.820Z,6.60
2022-09-14T07:37:13.444Z,5.50
2022-09-14T07:42:20.034Z,4.20
2022-09-14T07:47:23.782Z,3.60
2022-09-14T07:52:27.550Z,4.70
2022-09-14T07:57:54.658Z,5.60
2022-09-14T08:02:56.453Z,3.10
2022-09-14T08:08:00.153Z,4.20
2022-09-14T08:13:04.246Z,4.90
2022-09-14T08:18:07.604Z,6.00
2022-09-14T08:23:12.062Z,4.00
2022-09-14T08:28:15.569Z,4.30
2022-09-14T08:33:18.984Z,3.50
2022-09-14T08:38:22.502Z,3.80
2022-09-14T08:43:27.643Z,3.80
2022-09-14T08:48:36.083Z,3.30
2022-09-14T08:53:42.117Z,4.00
2022-09-14T08:59:10.357Z,3.50
2022-09-14T09:04:40.382Z,3.30
2022-09-14T09:09:50.436Z,4.70
2022-09-14T09:14:58.271Z,4.40
2022-09-14T09:20:24.048Z,3.80
2022-09-14T09:25:42.971Z,3.90
2022-09-14T09:30:47.314Z,5.60
2022-09-14T09:35:51.738Z,4.30
2022-09-14T09:41:06.276Z,3.10
2022-09-14T09:46:11.736Z,3.30
2022-09-14T09:51:34.038Z,3.10
2022-09-14T09:56:41.347Z,4.40
2022-09-14T10:01:48.978Z,3.60
2022-09-14T10:06:54.569Z,4.00
2022-09-14T10:12:03.271Z,7.60
2022-09-14T10:17:23.262Z,6.10
2022-09-14T10:22:31.696Z,4.50
2022-09-14T10:27:43.405Z,5.00
2022-09-14T10:33:01.414Z,6.10
2022-09-14T10:38:16.291Z,3.10
2022-09-14T10:43:50.456Z,4.90
2022-09-14T10:49:25.008Z,4.30
2022-09-14T10:54:50.403Z,6.00
2022-09-14T11:00:11.340Z,4.30
2022-09-14T11:05:24.798Z,5.70
2022-09-14T11:10:44.458Z,4.70
2022-09-14T11:15:53.748Z,4.50
2022-09-14T11:21:23.533Z,6.60
2022-09-14T11:26:42.070Z,5.00
2022-09-14T11:32:10.195Z,4.40
2022-09-14T11:37:21.165Z,4.00
2022-09-14T11:42:32.931Z,4.50
2022-09-14T11:47:43.722Z,8.10
2022-09-14T11:52:57.069Z,5.20
2022-09-14T11:58:13.973Z,4.30
2022-09-14T12:03:21.194Z,6.60
2022-09-14T12:08:29.644Z,4.60
2022-09-14T12:13:34.521Z,5.00
2022-09-14T12:18:42.857Z,5.90
2022-09-14T12:23:52.510Z,4.20
2022-09-14T12:29:06.584Z,4.00
2022-09-14T12:34:22.070Z,7.30
2022-09-14T12:39:30.785Z,4.00
2022-09-14T12:44:41.804Z,5.30
2022-09-14T12:49:46.342Z,4.20
2022-09-14T12:55:13.717Z,3.80
2022-09-14T13:00:25.841Z,6.30
2022-09-14T13:05:33.713Z,4.30
2022-09-14T13:10:40.237Z,4.80
2022-09-14T13:15:56.847Z,4.80
2022-09-14T13:21:04.732Z,5.00
2022-09-14T13:26:13.375Z,7.40
2022-09-14T13:32:01.014Z,4.70
2022-09-14T13:37:16.449Z,3.60
2022-09-14T13:42:22.036Z,4.40
2022-09-14T13:47:30.100Z,13.00
2022-09-14T13:53:01.161Z,5.40
2022-09-14T13:58:08.112Z,4.00
2022-09-14T14:03:31.547Z,5.30
2022-09-14T14:08:40.394Z,4.40
2022-09-14T14:13:47.186Z,4.70
2022-09-14T14:18:57.679Z,5.40
2022-09-14T14:24:28.108Z,10.40
2022-09-14T14:29:36.531Z,6.40
2022-09-14T14:34:46.194Z,8.00
2022-09-14T14:39:50.496Z,5.90
2022-09-14T14:44:54.872Z,5.90
2022-09-14T14:50:10.062Z,6.20
2022-09-14T14:55:28.575Z,12.10
2022-09-14T15:00:49.735Z,10.40
2022-09-14T15:06:27.357Z,7.00
2022-09-14T15:11:49.000Z,8.50
2022-09-14T15:17:08.140Z,7.50
2022-09-14T15:28:25.342Z,12.00
2022-09-14T15:33:43.705Z,14.50
2022-09-14T15:38:47.990Z,13.90
2022-09-14T15:43:59.408Z,12.00
2022-09-14T15:49:19.826Z,11.50
2022-09-14T15:54:31.988Z,9.00
2022-09-14T15:59:39.019Z,13.30
2022-09-14T16:04:43.103Z,13.80
2022-09-14T16:09:55.043Z,7.80
2022-09-14T16:15:04.571Z,9.50
2022-09-14T16:20:12.533Z,12.60
2022-09-14T16:25:17.503Z,7.70
2022-09-14T16:30:24.106Z,15.70
2022-09-14T16:35:28.785Z,14.10
2022-09-14T16:40:44.332Z,12.30
2022-09-14T16:46:25.513Z,11.20
2022-09-14T16:51:44.860Z,11.60
2022-09-14T16:57:27.310Z,7.60
2022-09-14T17:02:39.870Z,10.60
2022-09-14T17:07:47.874Z,10.60
2022-09-14T17:12:55.687Z,8.20
2022-09-14T17:18:01.145Z,9.20
2022-09-14T17:23:08.048Z,8.30
2022-09-14T17:28:18.460Z,7.30
2022-09-14T17:33:30.324Z,8.50
2022-09-14T17:38:40.198Z,10.90
2022-09-14T17:43:52.470Z,8.10
2022-09-14T17:49:16.091Z,10.70
2022-09-14T17:54:39.259Z,10.30
2022-09-14T18:00:21.979Z,10.30
2022-09-14T18:05:44.555Z,14.70
2022-09-14T18:16:59.886Z,12.30
2022-09-14T18:22:27.717Z,9.10
2022-09-14T18:28:02.751Z,12.00
2022-09-14T18:33:33.642Z,7.30
2022-09-14T18:38:41.707Z,7.50
2022-09-14T18:43:51.033Z,15.00
2022-09-14T18:49:17.309Z,12.80
2022-09-14T18:54:27.796Z,11.50
2022-09-14T18:59:41.854Z,9.40
2022-09-14T19:04:59.901Z,18.60
2022-09-14T19:10:16.273Z,12.50
2022-09-14T19:15:32.707Z,7.20
2022-09-14T19:21:07.017Z,23.10
2022-09-14T19:26:21.134Z,14.10
2022-09-14T19:31:38.410Z,14.20
2022-09-14T19:36:47.901Z,11.10
2022-09-14T19:41:54.602Z,17.70
2022-09-14T19:46:59.006Z,12.10
2022-09-14T19:52:05.629Z,11.10
2022-09-14T19:57:09.249Z,16.30
2022-09-14T20:02:13.118Z,9.80
2022-09-14T20:07:17.209Z,15.40
2022-09-14T20:12:20.831Z,10.70
2022-09-14T20:17:24.557Z,7.70
2022-09-14T20:22:29.536Z,8.00
2022-09-14T20:27:36.101Z,16.00
2022-09-14T20:32:42.902Z,15.70
2022-09-14T20:37:47.742Z,12.60
2022-09-14T20:42:51.370Z,18.70
2022-09-14T20:47:55.044Z,13.60
2022-09-14T20:52:58.726Z,15.00
2022-09-14T20:58:07.767Z,13.80
2022-09-14T21:03:13.340Z,14.50
2022-09-14T21:08:19.374Z,12.10
2022-09-14T21:13:23.240Z,15.60
2022-09-14T21:18:27.075Z,13.50
2022-09-14T21:23:31.581Z,10.70
2022-09-14T21:28:37.019Z,11.70
2022-09-14T21:33:42.978Z,12.40
2022-09-14T21:38:57.118Z,11.20
2022-09-14T21:44:00.841Z,14.10
2022-09-14T21:49:05.281Z,8.90
2022-09-14T21:54:12.526Z,9.00
2022-09-14T21:59:20.772Z,8.50
2022-09-14T22:04:25.677Z,8.80
2022-09-14T22:09:29.298Z,11.70
2022-09-14T22:14:33.539Z,7.40
2022-09-14T22:19:40.330Z,6.90
2022-09-14T22:24:44.057Z,9.60
2022-09-14T22:29:47.885Z,9.40
2022-09-14T22:34:56.427Z,17.60
2022-09-14T22:40:01.532Z,12.40
2022-09-14T22:45:05.536Z,14.00
2022-09-14T22:50:09.642Z,10.60
2022-09-14T22:55:15.718Z,11.10
2022-09-14T23:00:19.342Z,10.70
2022-09-14T23:05:22.962Z,13.50
2022-09-14T23:10:29.973Z,9.60
2022-09-14T23:15:38.367Z,8.60
2022-09-14T23:20:44.169Z,8.80
2022-09-14T23:25:48.509Z,8.50
2022-09-14T23:30:53.829Z,10.00
2022-09-14T23:35:58.005Z,8.80
2022-09-14T23:41:02.037Z,7.80
2022-09-14T23:46:05.789Z,9.20
2022-09-14T23:51:13.410Z,9.50
2022-09-14T23:56:17.511Z,10.40
